createdAt,value
2018-09-19T00:01:12.914Z,99.90
2018-09-19T00:03:43.321Z,99.90
2018-09-19T00:06:14.531Z,99.90
2018-09-19T00:08:45.603Z,99.90
2018-09-19T00:11:16.000Z,99.90
2018-09-19T00:13:46.437Z,99.90
2018-09-19T00:16:16.835Z,99.90
2018-09-19T00:18:47.162Z,99.90
2018-09-19T00:21:24.747Z,99.90
2018-09-19T00:23:55.154Z,99.90
2018-09-19T00:26:25.558Z,99.90
2018-09-19T00:28:56.851Z,99.90
2018-09-19T00:31:30.324Z,99.90
2018-09-19T00:34:00.655Z,99.90
2018-09-19T00:36:31.070Z,99.90
2018-09-19T00:39:01.417Z,99.90
2018-09-19T00:41:32.774Z,99.90
2018-09-19T00:44:09.349Z,99.90
2018-09-19T00:46:39.741Z,99.90
2018-09-19T00:49:10.064Z,99.90
2018-09-19T00:51:41.188Z,99.90
2018-09-19T00:54:12.357Z,99.90
2018-09-19T00:56:42.761Z,99.90
2018-09-19T00:59:13.265Z,99.90
2018-09-19T01:01:46.399Z,99.90
2018-09-19T01:04:17.568Z,99.90
2018-09-19T01:06:47.998Z,99.90
2018-09-19T01:09:20.459Z,99.90
2018-09-19T01:11:50.803Z,99.90
2018-09-19T01:14:22.251Z,99.80
2018-09-19T01:16:52.585Z,99.90
2018-09-19T01:19:25.034Z,99.70
2018-09-19T01:21:55.453Z,99.70
2018-09-19T01:24:26.627Z,99.80
2018-09-19T01:27:01.232Z,99.80
2018-09-19T01:29:51.948Z,99.70
2018-09-19T01:32:22.403Z,99.70
2018-09-19T01:34:52.767Z,99.60
2018-09-19T01:37:24.648Z,99.60
2018-09-19T01:39:55.074Z,99.60
2018-09-19T01:42:26.244Z,99.50
2018-09-19T01:45:00.734Z,99.40
2018-09-19T01:47:31.940Z,99.30
2018-09-19T01:50:03.385Z,99.30
2018-09-19T01:52:34.798Z,99.10
2018-09-19T01:55:05.220Z,99.00
2018-09-19T01:57:36.568Z,99.20
2018-09-19T02:00:06.977Z,99.30
2018-09-19T02:02:38.205Z,99.20
2018-09-19T02:05:08.580Z,99.20
2018-09-19T02:07:38.994Z,99.20
2018-09-19T02:10:09.442Z,99.00
2018-09-19T02:12:41.808Z,99.10
2018-09-19T02:15:12.205Z,99.10
2018-09-19T02:17:43.329Z,99.30
2018-09-19T02:20:19.652Z,99.30
2018-09-19T02:22:52.128Z,99.30
2018-09-19T02:25:22.514Z,99.30
2018-09-19T02:27:53.692Z,99.30
2018-09-19T02:30:24.127Z,99.30
2018-09-19T02:32:54.469Z,99.20
2018-09-19T02:35:24.787Z,99.30
2018-09-19T02:37:57.615Z,99.20
2018-09-19T02:40:28.710Z,99.80
2018-09-19T02:42:59.120Z,99.40
2018-09-19T02:45:30.572Z,99.20
2018-09-19T02:48:00.973Z,99.30
2018-09-19T02:50:31.308Z,99.20
2018-09-19T02:53:01.725Z,98.70
2018-09-19T02:55:32.068Z,98.90
2018-09-19T03:00:50.228Z,98.50
2018-09-19T03:03:20.618Z,98.40
2018-09-19T03:05:51.001Z,98.30
2018-09-19T03:08:25.442Z,98.20
2018-09-19T03:10:55.823Z,98.00
2018-09-19T03:13:26.217Z,97.80
2018-09-19T03:15:56.575Z,97.80
2018-09-19T03:18:26.982Z,97.60
2018-09-19T03:20:58.067Z,97.50
2018-09-19T03:23:28.491Z,97.40
2018-09-19T03:25:58.828Z,97.70
2018-09-19T03:28:30.262Z,97.40
2018-09-19T03:31:00.622Z,97.20
2018-09-19T03:33:49.261Z,97.10
2018-09-19T03:36:21.668Z,97.40
2018-09-19T03:38:52.056Z,97.00
2018-09-19T03:41:22.441Z,96.90
2018-09-19T03:43:52.810Z,96.80
2018-09-19T03:46:23.228Z,96.70
2018-09-19T03:48:53.618Z,97.00
2018-09-19T03:51:24.881Z,97.60
2018-09-19T03:54:01.360Z,97.20
2018-09-19T03:56:31.812Z,97.30
2018-09-19T03:59:08.556Z,97.20
2018-09-19T04:01:39.750Z,97.40
2018-09-19T04:04:11.173Z,97.30
2018-09-19T04:06:42.598Z,97.50
2018-09-19T04:09:13.055Z,97.60
2018-09-19T04:11:45.516Z,97.60
2018-09-19T04:14:15.933Z,97.60
2018-09-19T04:16:46.289Z,97.50
2018-09-19T04:19:18.743Z,97.50
2018-09-19T04:21:49.146Z,97.60
2018-09-19T04:24:20.269Z,97.60
2018-09-19T04:26:50.679Z,97.60
2018-09-19T04:29:21.088Z,97.60
2018-09-19T04:31:53.389Z,97.70
2018-09-19T04:34:23.797Z,97.80
2018-09-19T04:37:01.391Z,97.60
2018-09-19T04:39:35.872Z,97.80
2018-09-19T04:42:06.278Z,97.70
2018-09-19T04:44:37.466Z,98.10
2018-09-19T04:47:07.798Z,97.70
2018-09-19T04:49:38.195Z,97.70
2018-09-19T04:52:08.573Z,97.60
2018-09-19T04:54:38.989Z,97.60
2018-09-19T04:57:09.396Z,97.50
2018-09-19T04:59:39.817Z,97.40
2018-09-19T05:02:10.226Z,97.40
2018-09-19T05:04:40.636Z,97.40
2018-09-19T05:07:12.060Z,97.40
2018-09-19T05:09:42.436Z,97.40
2018-09-19T05:12:12.870Z,97.60
2018-09-19T05:14:44.063Z,97.60
2018-09-19T05:17:14.538Z,97.60
2018-09-19T05:19:53.144Z,97.40
2018-09-19T05:22:25.447Z,97.60
2018-09-19T05:24:56.877Z,97.50
2018-09-19T05:27:28.270Z,97.50
2018-09-19T05:30:02.762Z,97.60
2018-09-19T05:32:33.177Z,97.50
2018-09-19T05:35:03.607Z,97.60
2018-09-19T05:37:34.763Z,97.50
2018-09-19T05:40:05.191Z,97.50
2018-09-19T05:42:35.543Z,97.50
2018-09-19T05:45:05.867Z,97.50
2018-09-19T05:47:36.192Z,97.50
2018-09-19T05:50:26.941Z,97.50
2018-09-19T05:52:58.099Z,98.10
2018-09-19T05:55:28.544Z,97.70
2018-09-19T05:57:58.981Z,97.60
2018-09-19T06:00:29.398Z,97.50
2018-09-19T06:02:59.791Z,97.60
2018-09-19T06:05:30.165Z,97.50
2018-09-19T06:08:06.720Z,97.50
2018-09-19T06:10:37.160Z,97.30
2018-09-19T06:13:12.701Z,97.50
2018-09-19T06:15:43.142Z,97.60
2018-09-19T06:18:32.909Z,97.70
2018-09-19T06:21:04.049Z,97.60
2018-09-19T06:23:34.382Z,97.80
2018-09-19T06:26:04.759Z,97.80
2018-09-19T06:28:37.206Z,98.10
2018-09-19T06:31:07.532Z,98.10
2018-09-19T06:33:40.646Z,98.20
2018-09-19T06:36:11.305Z,97.90
2018-09-19T06:38:41.652Z,98.10
2018-09-19T06:41:12.909Z,97.20
2018-09-19T06:43:45.379Z,97.10
2018-09-19T06:46:16.791Z,97.50
2018-09-19T06:48:47.954Z,97.60
2018-09-19T06:51:19.073Z,97.60
2018-09-19T06:53:50.241Z,97.60
2018-09-19T06:56:20.574Z,97.50
2018-09-19T06:58:51.000Z,97.40
2018-09-19T07:01:21.399Z,97.50
2018-09-19T07:03:51.728Z,97.40
2018-09-19T07:06:22.152Z,97.00
2018-09-19T07:08:52.543Z,97.10
2018-09-19T07:14:16.343Z,97.00
2018-09-19T07:16:46.761Z,97.30
2018-09-19T07:19:17.142Z,97.40
2018-09-19T07:21:48.226Z,97.30
2018-09-19T07:24:20.685Z,97.30
2018-09-19T07:26:51.071Z,97.30
2018-09-19T07:29:21.467Z,97.10
2018-09-19T07:31:54.960Z,97.00
2018-09-19T07:34:45.413Z,96.80
2018-09-19T07:37:16.526Z,97.00
2018-09-19T07:39:46.918Z,96.90
2018-09-19T07:42:21.434Z,97.00
2018-09-19T07:44:51.848Z,97.20
2018-09-19T07:47:22.244Z,96.70
2018-09-19T07:49:52.669Z,96.50
2018-09-19T07:52:23.828Z,96.10
2018-09-19T07:54:54.212Z,96.10
2018-09-19T07:57:24.632Z,95.30
2018-09-19T08:00:15.450Z,95.00
2018-09-19T08:03:06.020Z,95.40
2018-09-19T08:05:36.445Z,95.50
2018-09-19T08:08:07.569Z,94.30
2018-09-19T08:10:38.178Z,94.20
2018-09-19T08:13:10.364Z,94.00
2018-09-19T08:15:41.448Z,94.40
2018-09-19T08:18:30.975Z,94.50
2018-09-19T08:21:02.134Z,94.30
2018-09-19T08:23:32.546Z,94.30
2018-09-19T08:26:02.974Z,94.70
2018-09-19T08:28:33.460Z,94.30
2018-09-19T08:31:03.824Z,94.10
2018-09-19T08:33:34.241Z,94.10
2018-09-19T08:36:04.653Z,93.90
2018-09-19T08:38:36.064Z,93.30
2018-09-19T08:41:06.495Z,93.10
2018-09-19T08:43:37.087Z,93.30
2018-09-19T08:46:08.264Z,92.60
2018-09-19T08:48:38.703Z,92.60
2018-09-19T08:51:11.162Z,93.20
2018-09-19T08:53:42.304Z,93.10
2018-09-19T08:56:13.032Z,93.10
2018-09-19T08:58:43.439Z,92.90
2018-09-19T09:01:13.849Z,92.60
2018-09-19T09:03:44.283Z,92.60
2018-09-19T09:06:14.681Z,92.40
2018-09-19T09:08:45.082Z,91.90
2018-09-19T09:11:15.454Z,91.70
2018-09-19T09:13:45.857Z,91.50
2018-09-19T09:16:23.596Z,91.30
2018-09-19T09:18:54.001Z,90.80
2018-09-19T09:21:24.331Z,89.40
2018-09-19T09:23:54.765Z,89.80
2018-09-19T09:26:25.180Z,90.10
2018-09-19T09:28:55.586Z,89.80
2018-09-19T09:31:30.104Z,90.10
2018-09-19T09:34:07.395Z,90.30
2018-09-19T09:36:38.553Z,89.70
2018-09-19T09:39:08.935Z,89.60
2018-09-19T09:41:39.340Z,88.10
2018-09-19T09:44:10.530Z,84.90
2018-09-19T09:46:46.077Z,84.90
2018-09-19T09:49:17.612Z,84.50
2018-09-19T09:51:48.961Z,84.50
2018-09-19T09:54:19.369Z,84.60
2018-09-19T09:56:49.801Z,84.30
2018-09-19T09:59:20.955Z,85.00
2018-09-19T10:01:51.357Z,85.00
2018-09-19T10:04:21.795Z,85.40
2018-09-19T10:06:52.881Z,83.60
2018-09-19T10:09:27.300Z,83.40
2018-09-19T10:11:59.781Z,84.10
2018-09-19T10:14:37.429Z,84.20
2018-09-19T10:17:08.613Z,84.10
2018-09-19T10:19:39.790Z,83.90
2018-09-19T10:22:10.123Z,83.80
2018-09-19T10:24:41.591Z,82.90
2018-09-19T10:27:11.916Z,80.60
2018-09-19T10:29:42.290Z,80.80
2018-09-19T10:32:13.460Z,79.30
2018-09-19T10:34:43.854Z,79.30
2018-09-19T10:37:14.257Z,79.10
2018-09-19T10:39:44.684Z,79.90
2018-09-19T10:42:15.837Z,78.80
2018-09-19T10:44:46.161Z,78.70
2018-09-19T10:47:17.076Z,78.00
2018-09-19T10:49:47.585Z,78.60
2018-09-19T10:52:18.017Z,78.20
2018-09-19T10:54:48.488Z,76.30
2018-09-19T10:57:19.843Z,75.70
2018-09-19T10:59:50.165Z,75.70
2018-09-19T11:02:22.554Z,75.70
2018-09-19T11:04:53.979Z,76.00
2018-09-19T11:07:24.562Z,76.30
2018-09-19T11:09:56.815Z,76.70
2018-09-19T11:12:46.594Z,76.00
2018-09-19T11:15:23.137Z,75.80
2018-09-19T11:17:53.523Z,75.40
2018-09-19T11:20:23.917Z,76.90
2018-09-19T11:22:59.448Z,76.80
2018-09-19T11:25:29.847Z,75.70
2018-09-19T11:28:00.266Z,77.10
2018-09-19T11:33:21.062Z,77.70
2018-09-19T11:35:52.475Z,78.20
2018-09-19T11:38:22.861Z,79.40
2018-09-19T11:40:53.262Z,79.40
2018-09-19T11:43:25.025Z,78.10
2018-09-19T11:45:55.284Z,78.00
2018-09-19T11:48:26.440Z,76.10
2018-09-19T11:50:58.335Z,76.00
2018-09-19T11:53:34.860Z,73.20
2018-09-19T11:56:06.152Z,72.70
2018-09-19T11:58:43.870Z,72.60
2018-09-19T12:01:14.980Z,73.20
2018-09-19T12:03:45.367Z,72.60
2018-09-19T12:06:15.754Z,72.20
2018-09-19T12:09:07.033Z,73.00
2018-09-19T12:11:37.432Z,72.30
2018-09-19T12:14:07.819Z,72.10
2018-09-19T12:16:38.247Z,71.70
2018-09-19T12:19:30.876Z,70.90
2018-09-19T12:22:02.015Z,71.30
2018-09-19T12:24:32.346Z,71.60
2018-09-19T12:27:03.380Z,71.20
2018-09-19T12:29:33.734Z,70.80
2018-09-19T12:32:04.138Z,72.00
2018-09-19T12:34:34.456Z,70.60
2018-09-19T12:37:04.889Z,68.50
2018-09-19T12:39:35.379Z,68.70
2018-09-19T12:42:05.718Z,69.10
2018-09-19T12:44:36.148Z,70.00
2018-09-19T12:47:07.318Z,68.90
2018-09-19T12:49:37.722Z,68.80
2018-09-19T12:52:08.913Z,67.60
2018-09-19T12:54:39.312Z,67.50
2018-09-19T12:57:09.702Z,67.90
2018-09-19T12:59:40.074Z,68.20
2018-09-19T13:02:10.452Z,68.60
2018-09-19T13:04:40.836Z,67.90
2018-09-19T13:07:11.235Z,67.30
2018-09-19T13:09:41.618Z,66.80
2018-09-19T13:12:11.997Z,67.20
2018-09-19T13:14:42.853Z,67.20
2018-09-19T13:17:13.171Z,66.70
2018-09-19T13:19:43.554Z,66.30
2018-09-19T13:22:14.741Z,66.80
2018-09-19T13:24:45.140Z,65.90
2018-09-19T13:27:15.561Z,65.40
2018-09-19T13:29:47.934Z,66.20
2018-09-19T13:32:18.265Z,65.30
2018-09-19T13:34:48.650Z,66.50
2018-09-19T13:37:19.081Z,65.20
2018-09-19T13:39:49.519Z,66.20
2018-09-19T13:42:19.923Z,66.30
2018-09-19T13:44:50.350Z,65.50
2018-09-19T13:47:22.799Z,65.90
2018-09-19T13:49:53.174Z,66.30
2018-09-19T13:52:24.542Z,65.90
2018-09-19T13:54:57.681Z,66.60
2018-09-19T13:57:34.238Z,66.50
2018-09-19T14:00:04.637Z,64.60
2018-09-19T14:02:36.478Z,65.10
2018-09-19T14:05:06.902Z,65.00
2018-09-19T14:07:37.272Z,65.20
2018-09-19T14:10:07.649Z,65.20
2018-09-19T14:12:38.143Z,65.30
2018-09-19T14:15:27.916Z,65.40
2018-09-19T14:17:58.336Z,65.90
2018-09-19T14:20:28.735Z,65.80
2018-09-19T14:22:59.130Z,66.50
2018-09-19T14:25:29.544Z,65.90
2018-09-19T14:28:00.893Z,65.80
2018-09-19T14:30:33.385Z,65.80
2018-09-19T14:33:04.591Z,66.60
2018-09-19T14:35:35.125Z,66.60
2018-09-19T14:38:05.393Z,65.90
2018-09-19T14:40:35.808Z,65.40
2018-09-19T14:43:06.189Z,66.10
2018-09-19T14:45:38.555Z,67.40
2018-09-19T14:48:08.957Z,66.80
2018-09-19T14:50:39.348Z,66.70
2018-09-19T14:53:30.150Z,66.40
2018-09-19T14:56:00.543Z,66.10
2018-09-19T14:58:30.927Z,66.30
2018-09-19T15:01:01.364Z,66.90
2018-09-19T15:03:36.837Z,67.20
2018-09-19T15:06:08.015Z,66.80
2018-09-19T15:08:41.456Z,66.70
2018-09-19T15:11:12.014Z,66.80
2018-09-19T15:13:42.445Z,66.50
2018-09-19T15:16:12.843Z,66.60
2018-09-19T15:18:43.226Z,66.90
2018-09-19T15:21:20.794Z,66.60
2018-09-19T15:23:51.905Z,67.00
2018-09-19T15:26:22.336Z,66.40
2018-09-19T15:28:52.674Z,65.60
2018-09-19T15:31:23.836Z,65.80
2018-09-19T15:33:54.213Z,65.80
2018-09-19T15:36:24.641Z,65.20
2018-09-19T15:38:55.025Z,65.50
2018-09-19T15:41:25.421Z,65.90
2018-09-19T15:43:56.705Z,66.50
2018-09-19T15:49:13.305Z,66.60
2018-09-19T15:51:44.433Z,66.60
2018-09-19T15:54:15.568Z,67.40
2018-09-19T15:56:45.998Z,67.40
2018-09-19T15:59:16.380Z,67.50
2018-09-19T16:01:50.852Z,67.90
2018-09-19T16:04:22.025Z,67.30
2018-09-19T16:06:52.417Z,67.20
2018-09-19T16:09:22.850Z,67.40
2018-09-19T16:11:54.231Z,67.40
2018-09-19T16:14:27.433Z,68.30
2018-09-19T16:16:57.824Z,67.80
2018-09-19T16:19:29.014Z,69.20
2018-09-19T16:22:04.678Z,68.30
2018-09-19T16:24:53.831Z,68.40
2018-09-19T16:27:24.226Z,68.80
2018-09-19T16:29:55.368Z,69.40
2018-09-19T16:32:26.558Z,69.30
2018-09-19T16:35:04.259Z,69.30
2018-09-19T16:37:34.918Z,69.30
2018-09-19T16:40:05.320Z,69.00
2018-09-19T16:42:55.112Z,69.10
2018-09-19T16:45:25.541Z,69.20
2018-09-19T16:47:55.896Z,69.10
2018-09-19T16:50:26.302Z,69.10
2018-09-19T16:52:56.762Z,69.20
2018-09-19T16:55:46.500Z,69.20
2018-09-19T16:58:16.828Z,69.60
2018-09-19T17:00:48.241Z,69.40
2018-09-19T17:03:18.664Z,69.60
2018-09-19T17:05:49.062Z,69.80
2018-09-19T17:08:22.046Z,70.00
2018-09-19T17:10:54.041Z,70.00
2018-09-19T17:13:24.421Z,70.00
2018-09-19T17:15:55.570Z,70.80
2018-09-19T17:18:25.982Z,70.70
2018-09-19T17:20:56.361Z,70.80
2018-09-19T17:23:26.726Z,71.00
2018-09-19T17:25:57.203Z,71.20
2018-09-19T17:28:28.354Z,71.40
2018-09-19T17:30:58.738Z,71.30
2018-09-19T17:33:29.154Z,71.70
2018-09-19T17:35:59.533Z,71.90
2018-09-19T17:38:29.938Z,72.10
2018-09-19T17:41:01.356Z,72.60
2018-09-19T17:43:35.329Z,72.50
2018-09-19T17:46:10.686Z,72.60
2018-09-19T17:48:41.070Z,73.00
2018-09-19T17:51:11.453Z,73.00
2018-09-19T17:53:41.878Z,73.10
2018-09-19T17:56:12.260Z,73.30
2018-09-19T17:58:43.424Z,73.90
2018-09-19T18:01:13.956Z,73.90
2018-09-19T18:03:44.409Z,74.40
2018-09-19T18:06:14.751Z,74.40
2018-09-19T18:09:04.548Z,74.60
2018-09-19T18:11:34.936Z,75.80
2018-09-19T18:14:10.441Z,75.00
2018-09-19T18:16:41.646Z,75.60
2018-09-19T18:19:32.348Z,75.60
2018-09-19T18:22:02.705Z,76.10
2018-09-19T18:24:33.858Z,76.50
2018-09-19T18:27:04.187Z,76.50
2018-09-19T18:29:34.600Z,76.60
2018-09-19T18:32:04.992Z,76.80
2018-09-19T18:34:36.408Z,77.00
2018-09-19T18:37:06.839Z,76.80
2018-09-19T18:39:37.156Z,77.10
2018-09-19T18:42:07.549Z,77.70
2018-09-19T18:44:37.994Z,77.90
2018-09-19T18:47:08.374Z,78.40
2018-09-19T18:49:40.818Z,78.40
2018-09-19T18:52:11.250Z,78.50
2018-09-19T18:54:41.637Z,78.80
2018-09-19T18:57:12.034Z,79.10
2018-09-19T18:59:42.394Z,79.10
2018-09-19T19:02:12.786Z,79.40
2018-09-19T19:04:43.106Z,79.60
2018-09-19T19:07:20.847Z,79.60
2018-09-19T19:09:52.010Z,79.90
2018-09-19T19:12:22.360Z,79.80
2018-09-19T19:14:52.759Z,79.70
2018-09-19T19:17:23.136Z,79.90
2018-09-19T19:22:41.526Z,80.40
2018-09-19T19:25:13.075Z,80.80
2018-09-19T19:27:42.308Z,81.10
2018-09-19T19:30:15.923Z,80.80
2018-09-19T19:32:46.287Z,80.70
2018-09-19T19:35:16.693Z,80.90
2018-09-19T19:37:54.442Z,81.20
2018-09-19T19:40:24.818Z,81.40
2018-09-19T19:42:55.211Z,81.50
2018-09-19T19:45:26.053Z,81.70
2018-09-19T19:47:57.226Z,82.10
2018-09-19T19:50:28.324Z,82.00
2018-09-19T19:52:58.730Z,81.90
2018-09-19T19:55:29.059Z,82.10
2018-09-19T19:57:59.461Z,82.10
2018-09-19T20:00:29.885Z,83.00
2018-09-19T20:03:03.328Z,82.30
2018-09-19T20:05:34.500Z,82.30
2018-09-19T20:08:04.972Z,82.30
2018-09-19T20:10:35.356Z,82.10
2018-09-19T20:13:05.724Z,81.90
2018-09-19T20:15:36.901Z,81.70
2018-09-19T20:18:11.144Z,81.90
2018-09-19T20:20:41.578Z,81.70
2018-09-19T20:23:12.048Z,81.70
2018-09-19T20:25:48.558Z,82.00
2018-09-19T20:28:19.785Z,81.90
2018-09-19T20:30:50.172Z,81.90
2018-09-19T20:33:26.744Z,82.10
2018-09-19T20:35:59.488Z,81.80
2018-09-19T20:38:29.912Z,81.60
2018-09-19T20:41:00.358Z,81.60
2018-09-19T20:43:30.767Z,81.20
2018-09-19T20:46:02.948Z,81.40
2018-09-19T20:48:33.799Z,81.30
2018-09-19T20:51:04.179Z,81.30
2018-09-19T20:53:35.338Z,81.00
2018-09-19T20:56:06.526Z,80.90
2018-09-19T20:58:57.280Z,80.90
2018-09-19T21:01:27.665Z,81.00
2018-09-19T21:03:58.051Z,81.20
2018-09-19T21:06:28.448Z,81.40
2018-09-19T21:08:58.867Z,81.20
2018-09-19T21:11:29.264Z,81.60
2018-09-19T21:14:05.838Z,81.70
2018-09-19T21:16:36.257Z,81.70
2018-09-19T21:19:10.756Z,81.70
2018-09-19T21:21:41.125Z,81.90
2018-09-19T21:24:11.523Z,81.80
2018-09-19T21:26:41.938Z,81.90
2018-09-19T21:29:12.368Z,81.70
2018-09-19T21:31:42.770Z,82.10
2018-09-19T21:34:13.928Z,82.40
2018-09-19T21:36:44.345Z,82.30
2018-09-19T21:39:15.511Z,82.30
2018-09-19T21:41:45.904Z,82.30
2018-09-19T21:44:16.360Z,82.50
2018-09-19T21:46:48.836Z,82.90
2018-09-19T21:49:19.233Z,83.20
2018-09-19T21:51:49.657Z,83.30
2018-09-19T21:54:19.996Z,83.20
2018-09-19T21:56:51.153Z,83.40
2018-09-19T21:59:21.588Z,83.40
2018-09-19T22:01:51.982Z,83.40
2018-09-19T22:04:23.130Z,83.70
2018-09-19T22:06:53.561Z,83.90
2018-09-19T22:09:24.719Z,84.10
2018-09-19T22:11:55.873Z,84.50
2018-09-19T22:14:26.366Z,84.50
2018-09-19T22:16:56.637Z,84.70
2018-09-19T22:19:27.053Z,85.20
2018-09-19T22:21:57.502Z,84.90
2018-09-19T22:24:27.886Z,85.00
2018-09-19T22:26:58.293Z,85.40
2018-09-19T22:29:28.727Z,86.50
2018-09-19T22:31:59.049Z,85.10
2018-09-19T22:34:29.456Z,85.30
2018-09-19T22:37:19.182Z,85.20
2018-09-19T22:39:50.357Z,85.50
2018-09-19T22:42:21.710Z,85.40
2018-09-19T22:44:52.137Z,85.40
2018-09-19T22:47:22.548Z,85.80
2018-09-19T22:49:52.938Z,85.40
2018-09-19T22:52:24.103Z,85.70
2018-09-19T22:54:54.438Z,85.70
2018-09-19T22:57:24.836Z,86.00
2018-09-19T22:59:55.257Z,86.10
2018-09-19T23:02:25.656Z,86.00
2018-09-19T23:05:17.514Z,85.80
2018-09-19T23:07:47.910Z,85.80
2018-09-19T23:10:25.640Z,86.40
2018-09-19T23:12:56.048Z,86.90
2018-09-19T23:15:26.452Z,86.90
2018-09-19T23:17:57.359Z,87.00
2018-09-19T23:20:27.762Z,87.50
2018-09-19T23:22:58.139Z,87.60
2018-09-19T23:25:29.254Z,87.50
2018-09-19T23:28:02.476Z,87.50
2018-09-19T23:30:33.566Z,87.50
2018-09-19T23:33:03.980Z,87.60
2018-09-19T23:35:34.387Z,87.90
2018-09-19T23:38:10.966Z,88.30
2018-09-19T23:40:42.394Z,88.30
2018-09-19T23:46:03.570Z,88.70
2018-09-19T23:48:33.954Z,88.70
2018-09-19T23:51:06.316Z,88.90
2018-09-19T23:53:36.751Z,89.20
2018-09-19T23:56:07.135Z,89.50
2018-09-19T23:58:37.519Z,89.40
